Time;durP1;ratioP1;P1;durP2;ratioP2;P2;SDS_P1;SDS_P2;PMS_P1;PMS_P2;Temp;Humidity;BMP_temperature;BMP_pressure;BME280_temperature;BME280_humidity;BME280_pressure;Samples;Min_cycle;Max_cycle;Signal;HPM_P1;HPM_P2
2023/05/09 00:00:30;;;;;;;;;3.00;2.00;;;;;18.51;58.64;101299.00;4989253;28;45000;-60
2023/05/09 00:02:55;;;;;;;;;5.33;3.67;;;;;18.50;58.55;101303.53;4989540;28;45013;-60
2023/05/09 00:05:21;;;;;;;;;3.33;3.33;;;;;18.47;58.35;101291.81;5005786;27;45169;-59
2023/05/09 00:07:47;;;;;;;;;4.67;3.67;;;;;18.48;58.23;101297.22;5008940;28;45186;-59
2023/05/09 00:10:12;;;;;;;;;5.00;4.00;;;;;18.42;58.21;101284.56;4982119;28;45249;-60
2023/05/09 00:12:38;;;;;;;;;6.00;3.00;;;;;18.47;57.97;101289.09;4987435;28;45149;-59
2023/05/09 00:15:07;;;;;;;;;8.00;4.67;;;;;18.43;58.35;101290.91;4991144;28;45226;-60
2023/05/09 00:17:32;;;;;;;;;3.00;3.00;;;;;18.40;58.29;101280.06;4981383;28;45133;-60
2023/05/09 00:20:00;;;;;;;;;3.00;3.00;;;;;18.40;58.49;101280.97;4983769;28;45123;-60
2023/05/09 00:22:26;;;;;;;;;4.00;1.67;;;;;18.39;58.60;101268.31;4981177;28;45069;-60
2023/05/09 00:24:52;;;;;;;;;3.00;3.00;;;;;18.35;58.53;101260.22;4988195;28;45362;-60
2023/05/09 00:27:17;;;;;;;;;4.00;3.67;;;;;18.35;58.95;101252.09;4985742;28;45675;-60
2023/05/09 00:29:42;;;;;;;;;4.33;3.00;;;;;18.36;58.74;101254.81;4988334;28;45268;-59
2023/05/09 00:32:08;;;;;;;;;4.00;4.00;;;;;18.34;58.92;101247.56;4985615;28;45070;-60
2023/05/09 00:34:34;;;;;;;;;6.33;3.67;;;;;18.30;59.50;101252.09;4990048;28;45284;-59
2023/05/09 00:36:59;;;;;;;;;3.00;3.00;;;;;18.30;59.48;101252.09;4989001;28;45204;-60
2023/05/09 00:39:25;;;;;;;;;3.00;3.00;;;;;18.30;59.42;101259.31;4982429;28;45133;-60
2023/05/09 00:41:50;;;;;;;;;4.33;2.67;;;;;18.28;59.40;101255.66;4988859;28;45192;-60
2023/05/09 00:44:16;;;;;;;;;3.67;2.00;;;;;18.19;59.27;101238.50;4988706;28;45095;-59
2023/05/09 00:46:42;;;;;;;;;3.67;3.67;;;;;18.21;59.31;101235.81;4985793;28;45116;-60
2023/05/09 00:49:07;;;;;;;;;3.00;2.00;;;;;18.17;59.11;101231.31;4985955;28;45120;-60
2023/05/09 00:51:35;;;;;;;;;3.00;3.00;;;;;18.25;59.18;101245.75;4988971;28;45072;-60
2023/05/09 00:54:01;;;;;;;;;4.00;2.00;;;;;18.17;59.07;101224.09;4989614;28;45601;-60
2023/05/09 00:56:26;;;;;;;;;6.00;4.00;;;;;18.22;59.15;101229.53;4991482;28;45233;-60
2023/05/09 00:58:51;;;;;;;;;8.67;5.00;;;;;18.18;58.80;101219.56;4980382;28;45008;-60
2023/05/09 01:01:17;;;;;;;;;5.00;4.00;;;;;18.23;58.97;101223.19;4983616;28;45064;-60
2023/05/09 01:03:43;;;;;;;;;4.00;3.00;;;;;18.18;59.08;101219.56;5000712;27;45184;-61
2023/05/09 01:06:15;;;;;;;;;3.00;3.00;;;;;18.19;58.71;101222.28;4992683;28;47288;-61
2023/05/09 01:08:48;;;;;;;;;3.33;3.00;;;;;18.18;59.17;101223.22;4987790;28;45278;-59
2023/05/09 01:11:28;;;;;;;;;4.00;4.00;;;;;18.09;59.24;101209.66;4988562;28;45124;-60
2023/05/09 01:14:11;;;;;;;;;2.00;2.00;;;;;18.13;58.93;101222.28;4987169;28;44959;-60
2023/05/09 01:16:42;;;;;;;;;2.67;2.00;;;;;18.13;59.41;101216.88;4976516;28;45555;-59
2023/05/09 01:19:58;;;;;;;;;3.00;3.00;;;;;18.04;59.56;101201.50;4978887;28;45770;-60
2023/05/09 01:22:30;;;;;;;;;5.00;3.33;;;;;18.09;59.82;101209.66;5012660;28;45176;-58
2023/05/09 01:25:09;;;;;;;;;3.00;3.00;;;;;18.08;59.56;101202.44;4982132;28;45019;-60
2023/05/09 01:27:56;;;;;;;;;3.67;3.67;;;;;18.07;59.76;101203.34;4989791;28;45912;-59
2023/05/09 01:30:24;;;;;;;;;3.00;3.00;;;;;18.05;59.37;101194.34;4984268;28;45158;-59
2023/05/09 01:32:51;;;;;;;;;5.00;2.00;;;;;18.03;59.69;101186.22;4982750;28;45207;-60
2023/05/09 01:35:17;;;;;;;;;5.00;3.00;;;;;18.04;59.89;101182.59;4984042;28;46270;-60
2023/05/09 01:37:49;;;;;;;;;4.00;3.33;;;;;18.02;60.17;101180.81;4986829;28;45145;-59
2023/05/09 01:40:19;;;;;;;;;3.33;3.33;;;;;18.02;59.82;101183.50;4991070;28;45038;-59
2023/05/09 01:42:51;;;;;;;;;4.67;3.67;;;;;18.01;60.10;101176.28;4989373;28;45127;-61
2023/05/09 01:45:18;;;;;;;;;3.00;3.00;;;;;17.96;59.89;101168.16;4989800;28;44919;-61
2023/05/09 01:47:47;;;;;;;;;2.33;2.33;;;;;17.99;59.87;101175.38;4988633;28;45707;-60
2023/05/09 01:50:16;;;;;;;;;3.33;1.67;;;;;17.93;59.98;101169.94;4980428;28;45013;-60
2023/05/09 01:52:42;;;;;;;;;3.67;3.67;;;;;17.93;59.68;101165.44;4980385;28;45150;-61
2023/05/09 01:55:10;;;;;;;;;2.00;2.00;;;;;17.94;60.15;101179.88;4990190;28;45088;-60
2023/05/09 01:57:37;;;;;;;;;5.00;3.33;;;;;17.88;60.07;101169.94;4988500;28;45167;-60
2023/05/09 02:00:06;;;;;;;;;2.67;2.67;;;;;17.93;60.12;101173.53;4988942;28;45114;-59
2023/05/09 02:02:32;;;;;;;;;4.00;4.00;;;;;17.91;60.39;101171.75;4987258;28;45039;-60
2023/05/09 02:04:59;;;;;;;;;5.67;4.00;;;;;17.87;60.44;101170.84;4986253;28;44924;-60
2023/05/09 02:07:28;;;;;;;;;5.00;5.00;;;;;17.86;60.38;101167.19;4990368;28;45780;-60
2023/05/09 02:09:55;;;;;;;;;2.67;2.67;;;;;17.76;60.86;101149.13;4988545;28;45126;-60
2023/05/09 02:12:22;;;;;;;;;3.00;2.67;;;;;17.82;60.92;101165.38;4987302;28;45047;-59
2023/05/09 02:14:47;;;;;;;;;4.00;3.00;;;;;17.81;61.35;101162.69;4991432;28;45021;-60
2023/05/09 02:17:15;;;;;;;;;3.67;3.00;;;;;17.82;60.91;101162.69;4990629;28;45457;-60
2023/05/09 02:19:44;;;;;;;;;4.00;2.67;;;;;17.83;61.16;101161.75;4990785;28;45097;-60
2023/05/09 02:22:11;;;;;;;;;3.00;3.00;;;;;17.82;61.08;101153.69;4980701;28;44961;-60
2023/05/09 02:24:37;;;;;;;;;4.00;3.00;;;;;17.80;61.14;101158.16;4991096;28;45091;-59
2023/05/09 02:27:04;;;;;;;;;3.00;3.00;;;;;17.72;61.11;101146.41;4990641;28;45206;-60
2023/05/09 02:29:52;;;;;;;;;4.00;4.00;;;;;17.77;61.38;101156.38;4989799;28;45183;-59
2023/05/09 02:32:22;;;;;;;;;6.33;3.67;;;;;17.76;61.22;101153.66;4989155;28;45329;-59
2023/05/09 02:34:51;;;;;;;;;2.33;2.33;;;;;17.77;61.47;101164.47;4980639;28;45085;-60
2023/05/09 02:37:17;;;;;;;;;2.67;2.67;;;;;17.73;61.47;101151.81;4990184;28;45787;-59
2023/05/09 02:39:43;;;;;;;;;2.67;2.67;;;;;17.69;61.71;101153.63;4990313;28;45099;-60
2023/05/09 02:42:14;;;;;;;;;5.33;3.33;;;;;17.54;61.90;101126.56;4990070;28;45468;-59
2023/05/09 02:44:40;;;;;;;;;7.00;5.67;;;;;17.65;62.03;101142.78;4991159;28;45128;-60
2023/05/09 02:47:06;;;;;;;;;5.00;5.00;;;;;17.67;62.13;101150.03;4983827;28;45191;-61
2023/05/09 02:49:32;;;;;;;;;5.33;5.33;;;;;17.66;62.29;101144.59;4983950;28;45675;-60
2023/05/09 02:51:58;;;;;;;;;4.67;3.67;;;;;17.63;62.41;101148.19;4990287;28;45169;-60
2023/05/09 02:54:23;;;;;;;;;6.00;3.67;;;;;17.56;62.85;101127.47;4990124;27;45134;-59
2023/05/09 02:56:48;;;;;;;;;4.33;4.33;;;;;17.64;63.33;101131.09;4990506;28;45313;-60
2023/05/09 02:59:14;;;;;;;;;4.67;3.67;;;;;17.63;63.42;101134.69;4983045;28;45767;-60
2023/05/09 03:01:40;;;;;;;;;6.00;6.00;;;;;17.60;64.07;101140.06;4990335;28;45130;-60
2023/05/09 03:04:05;;;;;;;;;5.67;5.67;;;;;17.55;64.27;101128.34;4981665;28;45091;-61
2023/05/09 03:06:31;;;;;;;;;4.00;4.00;;;;;17.55;64.47;101122.03;4988304;28;45295;-59
2023/05/09 03:08:56;;;;;;;;;3.00;2.67;;;;;17.54;64.47;101131.97;4983250;28;46119;-60
2023/05/09 03:11:22;;;;;;;;;5.33;4.00;;;;;17.58;64.63;101135.56;4988949;28;44991;-60
2023/05/09 03:13:47;;;;;;;;;6.00;5.00;;;;;17.59;65.04;101137.38;4979348;28;45272;-60
2023/05/09 03:16:14;;;;;;;;;5.00;5.00;;;;;17.56;64.61;101131.97;4989090;28;46276;-60
2023/05/09 03:18:39;;;;;;;;;2.33;2.33;;;;;17.52;65.18;101131.03;4991026;28;45209;-61
2023/05/09 03:21:05;;;;;;;;;4.67;4.67;;;;;17.52;65.31;101132.84;5001255;28;45135;-60
2023/05/09 03:23:30;;;;;;;;;4.00;2.67;;;;;17.45;65.05;101134.63;4987139;28;45193;-61
2023/05/09 03:25:55;;;;;;;;;5.00;4.00;;;;;17.40;65.23;101120.19;4989838;28;45170;-60
2023/05/09 03:28:21;;;;;;;;;9.00;7.00;;;;;17.30;65.74;101111.16;4990532;28;45088;-60
2023/05/09 03:30:46;;;;;;;;;3.67;3.67;;;;;17.36;66.21;101126.50;4979226;28;45116;-60
2023/05/09 03:33:12;;;;;;;;;2.67;2.67;;;;;17.33;65.90;101127.38;4990688;28;45285;-60
2023/05/09 03:35:37;;;;;;;;;5.33;4.67;;;;;17.26;66.18;101114.75;4990004;28;45123;-60
2023/05/09 03:38:02;;;;;;;;;5.00;5.00;;;;;17.28;65.57;101131.84;4984836;28;45086;-60
2023/05/09 03:40:28;;;;;;;;;3.33;3.33;;;;;17.25;65.67;101124.63;4989137;28;45106;-59
2023/05/09 03:42:53;;;;;;;;;3.33;3.33;;;;;17.20;64.87;101112.00;4985911;28;45082;-60
2023/05/09 03:45:18;;;;;;;;;2.67;2.67;;;;;17.21;63.97;101113.78;4989426;28;45157;-60
2023/05/09 03:47:45;;;;;;;;;3.00;3.00;;;;;17.11;64.27;101108.34;4990216;28;45210;-60
2023/05/09 03:50:10;;;;;;;;;3.00;3.00;;;;;17.17;63.97;101106.59;4985083;28;45211;-61
2023/05/09 03:52:36;;;;;;;;;1.67;1.67;;;;;16.97;62.54;101090.28;4990068;28;45035;-60
2023/05/09 03:55:01;;;;;;;;;4.00;4.00;;;;;17.03;62.77;101109.22;4972488;28;45091;-60
2023/05/09 03:57:27;;;;;;;;;3.67;2.67;;;;;16.97;62.91;101101.09;4987765;28;45158;-60
2023/05/09 03:59:52;;;;;;;;;1.33;1.00;;;;;16.93;64.12;101103.75;4989255;28;45018;-61
2023/05/09 04:02:17;;;;;;;;;1.33;1.33;;;;;16.89;63.05;101103.72;4989476;27;45017;-60
2023/05/09 04:04:43;;;;;;;;;1.67;1.33;;;;;16.82;63.36;101089.25;4989122;28;45566;-60
2023/05/09 04:07:09;;;;;;;;;3.00;3.00;;;;;16.83;63.90;101098.25;4989206;28;45194;-59
2023/05/09 04:09:34;;;;;;;;;4.67;3.33;;;;;16.80;63.59;101095.56;4989852;28;45114;-59
2023/05/09 04:11:59;;;;;;;;;1.67;1.67;;;;;16.67;64.24;101084.66;4981103;28;45060;-59
2023/05/09 04:14:25;;;;;;;;;3.00;3.00;;;;;16.71;65.27;101091.91;4975740;28;45390;-59
2023/05/09 04:16:50;;;;;;;;;2.67;2.67;;;;;16.66;65.76;101093.63;4969893;28;64496;-59
2023/05/09 04:19:15;;;;;;;;;3.00;3.00;;;;;16.59;65.80;101087.31;4968650;28;50300;-59
2023/05/09 04:21:40;;;;;;;;;3.67;3.67;;;;;16.51;66.10;101083.66;4979380;28;45416;-60
2023/05/09 04:24:06;;;;;;;;;2.67;2.67;;;;;16.53;66.65;101083.66;4965052;28;48940;-59
2023/05/09 04:26:31;;;;;;;;;4.67;2.67;;;;;16.49;66.61;101085.44;4970617;28;45464;-61
2023/05/09 04:28:57;;;;;;;;;5.00;5.00;;;;;16.48;66.27;101077.34;4970910;28;45619;-59
2023/05/09 04:31:22;;;;;;;;;3.67;3.00;;;;;16.48;65.58;101082.72;4977423;28;45526;-60
2023/05/09 04:33:47;;;;;;;;;3.00;2.33;;;;;16.38;65.65;101077.28;4965815;28;46154;-59
2023/05/09 04:36:13;;;;;;;;;3.00;3.00;;;;;16.33;64.35;101084.44;4967245;28;45509;-59
2023/05/09 04:38:38;;;;;;;;;3.67;1.33;;;;;16.30;64.09;101073.63;4967754;28;45394;-59
2023/05/09 04:41:03;;;;;;;;;3.00;2.67;;;;;16.32;64.72;101077.22;4965747;28;45453;-60
2023/05/09 04:43:30;;;;;;;;;2.33;2.33;;;;;16.21;62.93;101062.75;4965410;28;45450;-60
2023/05/09 04:45:55;;;;;;;;;1.00;1.00;;;;;15.94;64.15;101015.81;4958838;28;45461;-60
2023/05/09 04:48:20;;;;;;;;;3.33;2.33;;;;;16.25;63.04;101070.00;4970708;28;45486;-60
2023/05/09 04:50:47;;;;;;;;;1.67;1.67;;;;;16.13;62.97;101053.69;4966638;28;45389;-59
2023/05/09 04:53:13;;;;;;;;;0.33;0.33;;;;;16.14;62.97;101058.22;4970856;28;45967;-59
2023/05/09 04:55:38;;;;;;;;;5.33;3.00;;;;;16.21;63.34;101062.75;4974307;28;45572;-60
2023/05/09 04:58:03;;;;;;;;;5.00;1.67;;;;;16.13;63.23;101045.59;4989121;28;45083;-60
2023/05/09 05:00:29;;;;;;;;;1.33;1.33;;;;;16.19;62.51;101054.66;4986198;28;44839;-58
2023/05/09 05:02:54;;;;;;;;;1.33;1.33;;;;;16.25;62.92;101052.88;4981935;28;46037;-61
2023/05/09 05:05:20;;;;;;;;;0.33;0.33;;;;;16.24;62.54;101054.69;4983951;28;45134;-60
2023/05/09 05:07:45;;;;;;;;;1.00;1.00;;;;;16.28;62.69;101052.91;4985711;28;45025;-60
2023/05/09 05:10:10;;;;;;;;;1.67;1.67;;;;;16.20;63.17;101034.91;4982561;28;45579;-60
2023/05/09 05:12:36;;;;;;;;;3.33;2.00;;;;;16.28;63.47;101048.41;4963782;28;45909;-60
2023/05/09 05:15:01;;;;;;;;;4.00;2.67;;;;;16.29;64.18;101046.66;4964640;28;45479;-59
2023/05/09 05:17:28;;;;;;;;;3.00;1.00;;;;;16.26;64.67;101036.72;4971038;28;45444;-60
2023/05/09 05:19:54;;;;;;;;;3.67;2.00;;;;;16.26;64.36;101035.84;4971448;28;45441;-59
2023/05/09 05:22:19;;;;;;;;;2.00;2.00;;;;;16.24;63.77;101040.31;4963181;28;45683;-59
2023/05/09 05:24:44;;;;;;;;;3.67;2.00;;;;;16.20;63.87;101039.38;4962961;28;45385;-59
2023/05/09 05:27:10;;;;;;;;;3.00;1.67;;;;;16.21;63.84;101034.00;4962985;28;45404;-59
2023/05/09 05:29:35;;;;;;;;;5.00;3.33;;;;;16.20;64.16;101029.50;4969966;28;45421;-60
2023/05/09 05:32:00;;;;;;;;;4.33;2.00;;;;;16.15;63.71;101023.19;4970751;28;45379;-60
2023/05/09 05:34:26;;;;;;;;;6.33;4.67;;;;;16.09;64.91;101024.94;4999794;28;45409;-59
2023/05/09 05:36:51;;;;;;;;;6.00;2.00;;;;;16.03;64.71;101014.97;4965929;28;45453;-60
2023/05/09 05:39:16;;;;;;;;;1.33;1.33;;;;;16.06;65.22;101023.09;4956850;28;45374;-60
2023/05/09 05:41:42;;;;;;;;;3.33;3.00;;;;;15.79;65.63;100972.59;4966213;28;50410;-59
2023/05/09 05:44:07;;;;;;;;;4.00;2.67;;;;;16.04;65.07;101032.97;4965612;28;45447;-59
2023/05/09 05:46:33;;;;;;;;;2.67;2.67;;;;;15.98;66.29;101005.97;4978996;28;45581;-59
2023/05/09 05:48:58;;;;;;;;;3.00;3.00;;;;;16.01;66.31;101017.66;4986811;28;45381;-60
2023/05/09 05:51:23;;;;;;;;;5.67;2.67;;;;;16.07;66.10;101015.91;4970186;28;45739;-59
2023/05/09 05:53:48;;;;;;;;;4.33;4.33;;;;;15.92;65.88;101009.50;4970902;28;44961;-60
2023/05/09 05:56:14;;;;;;;;;5.00;3.67;;;;;15.92;66.15;101006.81;4980103;28;57967;-60
2023/05/09 05:58:39;;;;;;;;;4.67;3.67;;;;;15.95;66.79;101009.50;4970295;28;45563;-60
2023/05/09 06:01:05;;;;;;;;;5.00;5.00;;;;;15.79;66.66;100988.75;4979066;28;48653;-59
2023/05/09 06:03:30;;;;;;;;;8.00;5.00;;;;;15.85;67.22;100994.16;4968400;28;45573;-61
2023/05/09 06:05:56;;;;;;;;;3.67;1.33;;;;;15.91;66.07;100996.91;4968515;28;45760;-60
2023/05/09 06:08:21;;;;;;;;;2.67;2.00;;;;;15.83;65.54;100985.19;4963296;28;45582;-63
2023/05/09 06:10:46;;;;;;;;;8.00;6.33;;;;;15.84;65.15;100995.06;4961815;28;58567;-60
2023/05/09 06:13:12;;;;;;;;;11.00;10.00;;;;;15.68;65.78;100966.16;4971904;28;45551;-59
2023/05/09 06:15:37;;;;;;;;;2.00;2.00;;;;;15.73;65.11;101000.31;4973285;28;45869;-60
2023/05/09 06:18:02;;;;;;;;;10.00;7.67;;;;;15.71;66.05;100987.75;4973290;28;45286;-59
2023/05/09 06:20:28;;;;;;;;;5.00;3.00;;;;;15.78;66.29;100992.31;4972522;28;46312;-60
2023/05/09 06:22:53;;;;;;;;;4.00;2.67;;;;;15.75;65.85;100987.75;4972947;28;45501;-60
2023/05/09 06:25:18;;;;;;;;;2.67;2.00;;;;;15.68;65.23;100982.31;4972820;28;45920;-58
2023/05/09 06:27:44;;;;;;;;;4.67;2.67;;;;;15.68;65.76;100979.63;4973030;28;45429;-61
2023/05/09 06:30:10;;;;;;;;;1.00;1.00;;;;;15.57;64.47;100955.28;4972930;28;46188;-60
2023/05/09 06:32:35;;;;;;;;;3.00;3.00;;;;;15.63;64.87;100975.09;4973172;28;45512;-61
2023/05/09 06:35:01;;;;;;;;;2.00;2.00;;;;;15.62;64.96;100972.38;4973333;28;45368;-60
2023/05/09 06:37:26;;;;;;;;;5.67;4.67;;;;;15.65;65.22;100973.31;4973594;28;45343;-60
2023/05/09 06:39:51;;;;;;;;;4.33;3.00;;;;;15.56;66.11;100946.31;4972637;28;46774;-61
2023/05/09 06:42:17;;;;;;;;;3.67;2.33;;;;;15.66;65.30;100967.03;4972917;28;45470;-61
2023/05/09 06:44:42;;;;;;;;;2.33;1.67;;;;;15.61;64.86;100955.31;4973607;28;45571;-60
2023/05/09 06:47:08;;;;;;;;;3.67;2.00;;;;;15.69;64.84;100967.94;4973098;28;45369;-60
2023/05/09 06:49:34;;;;;;;;;5.00;3.00;;;;;15.62;65.11;100951.75;4972614;28;46521;-60
2023/05/09 06:51:59;;;;;;;;;2.00;2.00;;;;;15.56;64.97;100949.00;4972317;28;45502;-60
2023/05/09 06:54:24;;;;;;;;;3.00;1.67;;;;;15.58;64.57;100955.28;4972792;28;45400;-59
2023/05/09 06:56:50;;;;;;;;;3.00;1.67;;;;;15.60;65.19;100945.44;4972950;28;45290;-60
2023/05/09 06:59:15;;;;;;;;;4.67;3.00;;;;;15.62;65.32;100949.06;4969676;28;46039;-60
2023/05/09 07:01:41;;;;;;;;;9.67;8.33;;;;;15.52;65.66;100928.28;4972337;28;45362;-60
2023/05/09 07:04:06;;;;;;;;;7.00;4.67;;;;;15.57;65.94;100937.31;4973528;28;45501;-59
2023/05/09 07:06:32;;;;;;;;;3.00;3.00;;;;;15.55;66.53;100930.13;4973127;28;45404;-60
2023/05/09 07:08:57;;;;;;;;;2.67;2.33;;;;;15.54;65.88;100929.25;4972546;28;50071;-58
2023/05/09 07:11:22;;;;;;;;;2.33;2.33;;;;;15.49;66.23;100922.88;4972655;28;45263;-60
2023/05/09 07:13:48;;;;;;;;;1.67;1.00;;;;;15.49;66.16;100920.19;4972027;28;45457;-61
2023/05/09 07:16:13;;;;;;;;;3.67;3.00;;;;;15.51;67.55;100923.81;4972620;28;45530;-58
2023/05/09 07:18:39;;;;;;;;;5.67;4.00;;;;;15.52;67.17;100919.31;4971908;28;46478;-59
2023/05/09 07:21:04;;;;;;;;;4.00;4.00;;;;;15.42;66.68;100910.25;4963150;28;45448;-60
2023/05/09 07:23:29;;;;;;;;;5.00;4.00;;;;;15.47;66.65;100917.47;4972838;27;45453;-60
2023/05/09 07:25:58;;;;;;;;;4.00;4.00;;;;;15.43;67.24;100904.00;4973146;28;45728;-61
2023/05/09 07:28:23;;;;;;;;;5.67;4.00;;;;;15.44;66.95;100904.03;4972374;28;46261;-60
2023/05/09 07:30:49;;;;;;;;;7.33;4.67;;;;;15.47;67.38;100906.72;4964446;28;45370;-60
2023/05/09 07:33:14;;;;;;;;;3.67;2.00;;;;;15.50;67.12;100904.97;4972542;27;45317;-61
2023/05/09 07:35:39;;;;;;;;;8.00;4.00;;;;;15.46;67.35;100890.56;4973101;28;45463;-61
2023/05/09 07:38:05;;;;;;;;;4.00;4.00;;;;;15.52;67.98;100901.38;4972256;28;46042;-61
2023/05/09 07:40:32;;;;;;;;;14.33;8.67;;;;;15.53;67.85;100895.09;4980451;27;45466;-61
2023/05/09 07:42:57;;;;;;;;;12.67;8.00;;;;;15.54;67.75;100896.00;4972639;28;45422;-58
2023/05/09 07:45:23;;;;;;;;;11.00;8.00;;;;;15.53;67.44;100889.72;4972578;28;45276;-59
2023/05/09 07:47:48;;;;;;;;;4.67;3.67;;;;;15.51;67.59;100883.44;4959714;28;45992;-59
2023/05/09 07:50:14;;;;;;;;;2.00;2.00;;;;;15.58;67.36;100885.28;4972344;28;45412;-59
2023/05/09 07:52:39;;;;;;;;;5.33;4.33;;;;;15.59;67.06;100884.41;4972142;28;45449;-60
2023/05/09 07:55:05;;;;;;;;;6.00;3.33;;;;;15.58;68.01;100874.50;4972571;28;45368;-60
2023/05/09 07:57:31;;;;;;;;;1.00;1.00;;;;;15.65;67.30;100883.53;4972026;28;46838;-59
2023/05/09 07:59:56;;;;;;;;;5.00;5.00;;;;;15.71;67.69;100883.59;4972224;28;45333;-59
2023/05/09 08:02:21;;;;;;;;;5.00;5.00;;;;;15.72;67.30;100884.47;4971908;28;49905;-61
2023/05/09 08:04:49;;;;;;;;;8.00;4.00;;;;;15.72;67.93;100882.66;4970078;28;45329;-62
2023/05/09 08:07:15;;;;;;;;;6.00;5.00;;;;;15.66;68.30;100871.88;4971747;28;46051;-60
2023/05/09 08:09:40;;;;;;;;;5.00;5.00;;;;;15.66;68.43;100883.53;4971129;28;55903;-59
2023/05/09 08:12:06;;;;;;;;;5.33;4.33;;;;;15.70;69.13;100876.38;4971965;28;45278;-60
2023/05/09 08:14:31;;;;;;;;;7.00;4.00;;;;;15.72;68.59;100866.50;4972809;28;45369;-58
2023/05/09 08:16:57;;;;;;;;;7.00;5.00;;;;;15.66;68.93;100859.31;4971828;28;45943;-60
2023/05/09 08:19:24;;;;;;;;;7.33;4.67;;;;;15.66;69.54;100870.06;4971873;28;45453;-58
2023/05/09 08:21:50;;;;;;;;;6.67;5.00;;;;;15.68;69.51;100863.81;4971554;28;45622;-59
2023/05/09 08:24:16;;;;;;;;;5.00;5.00;;;;;15.74;70.22;100863.81;4971853;28;45575;-60
2023/05/09 08:26:43;;;;;;;;;7.67;6.00;;;;;15.78;69.95;100863.91;4971191;28;46039;-61
2023/05/09 08:29:08;;;;;;;;;9.00;6.00;;;;;15.77;69.53;100855.81;4971523;28;45486;-60
2023/05/09 08:31:33;;;;;;;;;12.67;10.33;;;;;15.79;70.59;100852.25;4968581;28;45538;-59
2023/05/09 08:33:59;;;;;;;;;6.00;6.00;;;;;15.77;70.57;100845.97;4972071;28;45378;-59
2023/05/09 08:36:25;;;;;;;;;11.33;8.00;;;;;15.82;71.20;100845.97;4971535;28;46214;-61
2023/05/09 08:38:50;;;;;;;;;4.67;4.67;;;;;15.88;70.54;100847.81;4971432;28;45401;-59
2023/05/09 08:41:16;;;;;;;;;7.00;5.67;;;;;15.84;70.78;100833.41;4970420;28;45381;-61
2023/05/09 08:43:42;;;;;;;;;4.33;3.33;;;;;15.84;70.39;100828.03;4959966;28;45227;-59
2023/05/09 08:46:09;;;;;;;;;5.67;4.33;;;;;15.87;70.90;100836.09;4958980;28;45508;-62
2023/05/09 08:48:37;;;;;;;;;7.33;7.33;;;;;15.77;70.96;100810.94;4971606;28;45655;-58
2023/05/09 08:51:04;;;;;;;;;9.00;9.00;;;;;15.93;72.05;100829.88;4971756;28;45601;-62
2023/05/09 08:53:30;;;;;;;;;7.33;6.00;;;;;15.96;71.29;100824.50;4971620;28;45309;-60
2023/05/09 08:55:57;;;;;;;;;4.33;4.33;;;;;15.94;70.83;100818.22;4965845;28;46115;-59
2023/05/09 08:58:23;;;;;;;;;8.00;6.00;;;;;15.99;71.25;100814.63;4971467;28;45439;-60
2023/05/09 09:00:49;;;;;;;;;6.33;6.33;;;;;15.95;72.07;100810.09;4970980;28;45333;-60
2023/05/09 09:03:16;;;;;;;;;6.00;6.00;;;;;16.06;71.59;100809.28;4971397;27;45484;-57
2023/05/09 09:05:43;;;;;;;;;12.00;10.33;;;;;16.00;72.04;100799.34;4970766;28;45486;-60
2023/05/09 09:08:09;;;;;;;;;6.67;6.67;;;;;16.12;71.90;100804.81;4971165;28;45357;-61
2023/05/09 09:10:39;;;;;;;;;5.33;5.33;;;;;16.11;71.39;100804.81;4964813;28;45476;-62
2023/05/09 09:13:05;;;;;;;;;6.00;5.67;;;;;16.08;71.46;100802.09;4970952;28;45508;-60
2023/05/09 09:15:35;;;;;;;;;6.33;6.00;;;;;16.07;71.90;100802.97;4972038;28;45978;-60
2023/05/09 09:18:08;;;;;;;;;8.67;7.33;;;;;16.03;72.45;100804.75;4988966;27;45351;-60
2023/05/09 09:20:41;;;;;;;;;10.00;7.00;;;;;15.99;72.93;100794.88;4973982;28;45951;-61
2023/05/09 09:23:11;;;;;;;;;9.00;5.67;;;;;16.02;72.40;100801.19;4973932;28;45309;-60
2023/05/09 09:25:36;;;;;;;;;5.33;5.33;;;;;16.06;72.84;100794.00;4973366;28;46184;-65
2023/05/09 09:28:02;;;;;;;;;6.00;5.00;;;;;16.08;71.86;100797.59;4974050;28;45483;-62
2023/05/09 09:30:28;;;;;;;;;6.00;6.00;;;;;16.07;72.39;100798.53;4973860;28;45443;-60
2023/05/09 09:32:54;;;;;;;;;11.33;8.33;;;;;16.07;72.71;100797.59;4973916;28;45342;-61
2023/05/09 09:35:19;;;;;;;;;5.00;4.00;;;;;15.96;72.63;100784.97;4969594;28;45372;-61
2023/05/09 09:37:45;;;;;;;;;8.00;8.00;;;;;15.95;73.30;100796.63;4966504;28;45587;-58
2023/05/09 09:40:11;;;;;;;;;5.00;5.00;;;;;15.97;72.99;100800.25;4974267;28;45593;-61
2023/05/09 09:42:44;;;;;;;;;6.00;5.33;;;;;15.94;73.38;100802.06;4963113;28;45561;-60
2023/05/09 09:45:14;;;;;;;;;9.67;6.67;;;;;15.94;73.69;100799.34;4972909;28;46141;-61
2023/05/09 09:47:42;;;;;;;;;5.67;4.00;;;;;15.87;73.37;100790.31;4973744;28;45494;-59
2023/05/09 09:50:15;;;;;;;;;5.67;3.00;;;;;15.85;73.28;100794.78;4962026;28;45427;-59
2023/05/09 09:52:49;;;;;;;;;3.00;3.00;;;;;15.87;73.21;100801.09;4974155;28;45439;-60
2023/05/09 09:55:14;;;;;;;;;5.00;5.00;;;;;15.86;73.98;100795.72;4968203;28;46046;-61
2023/05/09 09:57:43;;;;;;;;;2.67;2.67;;;;;15.71;73.08;100783.03;4973823;28;45400;-61
2023/05/09 10:00:10;;;;;;;;;4.00;3.33;;;;;15.73;74.00;100787.50;4974038;28;45483;-62
2023/05/09 10:02:52;;;;;;;;;4.00;3.67;;;;;15.73;73.53;100790.22;4973675;28;45504;-61
2023/05/09 10:05:27;;;;;;;;;2.00;2.00;;;;;15.70;73.01;100800.06;4973239;28;46268;-61
2023/05/09 10:07:55;;;;;;;;;3.00;3.00;;;;;15.61;73.37;100780.28;4973426;28;45458;-61
2023/05/09 10:10:21;;;;;;;;;4.00;4.00;;;;;15.64;74.13;100777.59;4971899;28;45525;-59
2023/05/09 10:12:49;;;;;;;;;8.00;7.00;;;;;15.67;74.02;100776.69;4973653;28;45350;-60
2023/05/09 10:15:19;;;;;;;;;3.00;3.00;;;;;15.66;73.78;100774.91;4971883;28;46338;-61
2023/05/09 10:17:44;;;;;;;;;3.33;3.33;;;;;15.63;74.29;100765.00;4975172;28;45601;-61
2023/05/09 10:20:12;;;;;;;;;4.00;4.00;;;;;15.62;74.53;100759.63;4973197;28;45500;-60
2023/05/09 10:22:39;;;;;;;;;5.00;5.00;;;;;15.71;74.74;100764.19;4973460;28;45313;-60
2023/05/09 10:25:12;;;;;;;;;10.33;8.33;;;;;15.79;74.51;100765.16;4973196;28;46042;-61
2023/05/09 10:27:40;;;;;;;;;4.00;3.00;;;;;15.77;74.68;100748.97;4972865;28;45552;-60
2023/05/09 10:30:09;;;;;;;;;2.33;1.00;;;;;15.86;74.10;100756.19;4972979;27;45303;-61
2023/05/09 10:32:41;;;;;;;;;11.33;8.67;;;;;15.92;74.20;100758.94;4972274;28;45428;-61
2023/05/09 10:35:09;;;;;;;;;7.00;6.00;;;;;15.94;73.95;100742.78;4972906;28;46139;-61
2023/05/09 10:37:35;;;;;;;;;4.00;4.00;;;;;15.92;74.36;100728.38;4973108;28;45538;-62
2023/05/09 10:40:03;;;;;;;;;3.00;3.00;;;;;15.91;74.02;100740.06;4972928;28;45519;-63
2023/05/09 10:42:29;;;;;;;;;3.00;1.00;;;;;15.91;73.56;100745.44;4973257;28;45266;-61
2023/05/09 10:44:55;;;;;;;;;2.33;2.00;;;;;15.89;74.15;100740.06;4972660;28;46277;-62
2023/05/09 10:47:21;;;;;;;;;1.00;1.00;;;;;15.58;74.49;100682.41;4972815;28;45368;-62
2023/05/09 10:49:48;;;;;;;;;2.67;2.67;;;;;15.90;74.47;100739.13;4969061;28;45367;-61
2023/05/09 10:52:13;;;;;;;;;11.67;11.67;;;;;15.93;75.07;100741.84;4964812;28;45525;-60
2023/05/09 10:54:39;;;;;;;;;6.00;6.00;;;;;15.96;75.70;100730.19;4972392;28;46165;-62
2023/05/09 10:57:08;;;;;;;;;4.00;3.00;;;;;15.99;74.78;100728.41;4973202;28;45521;-63
2023/05/09 10:59:38;;;;;;;;;7.00;5.67;;;;;16.00;75.37;100727.53;4972831;28;45586;-61
2023/05/09 11:02:05;;;;;;;;;3.00;3.00;;;;;15.96;74.47;100725.69;4973051;28;45352;-61
2023/05/09 11:04:31;;;;;;;;;6.00;6.00;;;;;16.00;74.98;100719.44;4972569;28;47506;-61
2023/05/09 11:06:58;;;;;;;;;6.67;5.33;;;;;16.03;75.23;100722.13;4972810;28;45572;-62
2023/05/09 11:09:28;;;;;;;;;8.33;3.33;;;;;16.07;75.27;100714.03;4972584;28;45215;-61
2023/05/09 11:12:09;;;;;;;;;4.00;4.00;;;;;16.10;74.81;100712.28;4972877;28;45633;-60
2023/05/09 11:14:34;;;;;;;;;5.67;5.67;;;;;16.18;75.49;100709.59;4963659;28;45455;-59
2023/05/09 11:17:03;;;;;;;;;5.33;4.67;;;;;16.22;74.99;100711.41;4972012;28;45464;-62
2023/05/09 11:19:56;;;;;;;;;15.33;14.00;;;;;16.26;74.75;100704.22;4972738;28;45527;-60
2023/05/09 11:22:29;;;;;;;;;4.00;4.00;;;;;16.33;74.66;100711.44;4972341;28;45486;-61